sensor_id;sensor_type;location;lat;lon;timestamp;P1;durP1;ratioP1;P2;durP2;ratioP2
6983;SDS011;3532;51.118;7.210;2022-11-18T00:00:28;5.23;;;2.60;;
6983;SDS011;3532;51.118;7.210;2022-11-18T00:02:53;6.30;;;2.97;;
6983;SDS011;3532;51.118;7.210;2022-11-18T00:05:18;8.73;;;3.00;;
6983;SDS011;3532;51.118;7.210;2022-11-18T00:07:44;3.83;;;2.40;;
6983;SDS011;3532;51.118;7.210;2022-11-18T00:10:09;6.00;;;2.93;;
6983;SDS011;3532;51.118;7.210;2022-11-18T00:12:36;4.73;;;2.90;;
6983;SDS011;3532;51.118;7.210;2022-11-18T00:15:20;6.30;;;2.97;;
6983;SDS011;3532;51.118;7.210;2022-11-18T00:17:45;8.40;;;3.07;;
6983;SDS011;3532;51.118;7.210;2022-11-18T00:20:10;5.67;;;3.00;;
6983;SDS011;3532;51.118;7.210;2022-11-18T00:22:36;3.60;;;3.00;;
6983;SDS011;3532;51.118;7.210;2022-11-18T00:25:01;6.17;;;3.00;;
6983;SDS011;3532;51.118;7.210;2022-11-18T00:27:29;7.10;;;2.70;;
6983;SDS011;3532;51.118;7.210;2022-11-18T00:29:55;6.60;;;3.07;;
6983;SDS011;3532;51.118;7.210;2022-11-18T00:32:21;5.77;;;3.00;;
6983;SDS011;3532;51.118;7.210;2022-11-18T00:34:46;6.63;;;3.50;;
6983;SDS011;3532;51.118;7.210;2022-11-18T00:37:11;4.53;;;2.70;;
6983;SDS011;3532;51.118;7.210;2022-11-18T00:39:37;10.87;;;3.20;;
6983;SDS011;3532;51.118;7.210;2022-11-18T00:42:02;4.33;;;3.00;;
6983;SDS011;3532;51.118;7.210;2022-11-18T00:44:46;6.03;;;3.40;;
6983;SDS011;3532;51.118;7.210;2022-11-18T00:47:11;6.47;;;2.77;;
6983;SDS011;3532;51.118;7.210;2022-11-18T00:49:36;7.93;;;3.50;;
6983;SDS011;3532;51.118;7.210;2022-11-18T00:52:02;4.90;;;3.13;;
6983;SDS011;3532;51.118;7.210;2022-11-18T00:54:27;5.90;;;3.13;;
6983;SDS011;3532;51.118;7.210;2022-11-18T00:56:53;3.03;;;2.73;;
6983;SDS011;3532;51.118;7.210;2022-11-18T00:59:18;5.07;;;3.53;;
6983;SDS011;3532;51.118;7.210;2022-11-18T01:01:43;6.37;;;2.83;;
6983;SDS011;3532;51.118;7.210;2022-11-18T01:04:08;6.30;;;3.33;;
6983;SDS011;3532;51.118;7.210;2022-11-18T01:06:34;6.03;;;3.23;;
6983;SDS011;3532;51.118;7.210;2022-11-18T01:08:59;7.00;;;3.70;;
6983;SDS011;3532;51.118;7.210;2022-11-18T01:11:24;5.30;;;2.80;;
6983;SDS011;3532;51.118;7.210;2022-11-18T01:14:08;9.60;;;3.20;;
6983;SDS011;3532;51.118;7.210;2022-11-18T01:16:34;6.23;;;3.07;;
6983;SDS011;3532;51.118;7.210;2022-11-18T01:18:59;3.73;;;2.50;;
6983;SDS011;3532;51.118;7.210;2022-11-18T01:21:24;4.27;;;2.97;;
6983;SDS011;3532;51.118;7.210;2022-11-18T01:23:50;4.43;;;2.90;;
6983;SDS011;3532;51.118;7.210;2022-11-18T01:26:15;5.53;;;2.77;;
6983;SDS011;3532;51.118;7.210;2022-11-18T01:28:42;6.73;;;3.53;;
6983;SDS011;3532;51.118;7.210;2022-11-18T01:31:09;4.70;;;3.20;;
6983;SDS011;3532;51.118;7.210;2022-11-18T01:33:36;6.60;;;3.23;;
6983;SDS011;3532;51.118;7.210;2022-11-18T01:36:01;5.77;;;2.80;;
6983;SDS011;3532;51.118;7.210;2022-11-18T01:38:27;7.37;;;3.10;;
6983;SDS011;3532;51.118;7.210;2022-11-18T01:40:53;9.40;;;3.20;;
6983;SDS011;3532;51.118;7.210;2022-11-18T01:43:20;5.93;;;2.87;;
6983;SDS011;3532;51.118;7.210;2022-11-18T01:45:50;12.20;;;4.60;;
6983;SDS011;3532;51.118;7.210;2022-11-18T01:48:20;6.73;;;2.93;;
6983;SDS011;3532;51.118;7.210;2022-11-18T01:50:49;6.67;;;3.03;;
6983;SDS011;3532;51.118;7.210;2022-11-18T01:53:19;4.57;;;3.20;;
6983;SDS011;3532;51.118;7.210;2022-11-18T01:55:46;3.97;;;3.20;;
6983;SDS011;3532;51.118;7.210;2022-11-18T01:58:17;6.30;;;3.60;;
6983;SDS011;3532;51.118;7.210;2022-11-18T02:00:47;4.67;;;3.00;;
6983;SDS011;3532;51.118;7.210;2022-11-18T02:03:12;9.40;;;4.30;;
6983;SDS011;3532;51.118;7.210;2022-11-18T02:05:38;3.20;;;2.90;;
6983;SDS011;3532;51.118;7.210;2022-11-18T02:08:04;8.33;;;3.33;;
6983;SDS011;3532;51.118;7.210;2022-11-18T02:10:30;4.13;;;2.93;;
6983;SDS011;3532;51.118;7.210;2022-11-18T02:12:55;7.07;;;3.10;;
6983;SDS011;3532;51.118;7.210;2022-11-18T02:15:40;6.70;;;2.87;;
6983;SDS011;3532;51.118;7.210;2022-11-18T02:18:19;7.20;;;3.13;;
6983;SDS011;3532;51.118;7.210;2022-11-18T02:20:47;6.60;;;3.27;;
6983;SDS011;3532;51.118;7.210;2022-11-18T02:30:10;5.43;;;3.40;;
6983;SDS011;3532;51.118;7.210;2022-11-18T02:38:11;3.37;;;3.00;;
6983;SDS011;3532;51.118;7.210;2022-11-18T02:40:40;4.20;;;3.13;;
6983;SDS011;3532;51.118;7.210;2022-11-18T02:43:12;5.57;;;3.70;;
6983;SDS011;3532;51.118;7.210;2022-11-18T02:45:44;4.93;;;3.13;;
6983;SDS011;3532;51.118;7.210;2022-11-18T02:48:11;4.37;;;3.27;;
6983;SDS011;3532;51.118;7.210;2022-11-18T02:50:37;3.90;;;2.97;;
6983;SDS011;3532;51.118;7.210;2022-11-18T02:53:04;5.17;;;3.63;;
6983;SDS011;3532;51.118;7.210;2022-11-18T02:55:32;9.07;;;3.60;;
6983;SDS011;3532;51.118;7.210;2022-11-18T02:57:59;7.40;;;3.33;;
6983;SDS011;3532;51.118;7.210;2022-11-18T03:00:25;5.33;;;3.50;;
6983;SDS011;3532;51.118;7.210;2022-11-18T03:02:51;5.27;;;3.40;;
6983;SDS011;3532;51.118;7.210;2022-11-18T03:05:35;3.53;;;3.10;;
6983;SDS011;3532;51.118;7.210;2022-11-18T03:08:08;6.53;;;3.60;;
6983;SDS011;3532;51.118;7.210;2022-11-18T03:10:41;5.90;;;3.57;;
6983;SDS011;3532;51.118;7.210;2022-11-18T03:13:11;8.63;;;3.90;;
6983;SDS011;3532;51.118;7.210;2022-11-18T03:15:44;6.43;;;3.27;;
6983;SDS011;3532;51.118;7.210;2022-11-18T03:20:54;5.10;;;3.50;;
6983;SDS011;3532;51.118;7.210;2022-11-18T03:26:06;11.07;;;3.43;;
6983;SDS011;3532;51.118;7.210;2022-11-18T03:28:43;5.53;;;3.03;;
6983;SDS011;3532;51.118;7.210;2022-11-18T03:31:13;4.63;;;3.30;;
6983;SDS011;3532;51.118;7.210;2022-11-18T03:33:57;6.90;;;3.80;;
6983;SDS011;3532;51.118;7.210;2022-11-18T03:36:26;6.20;;;3.10;;
6983;SDS011;3532;51.118;7.210;2022-11-18T03:38:54;7.23;;;3.23;;
6983;SDS011;3532;51.118;7.210;2022-11-18T03:41:21;5.50;;;3.37;;
6983;SDS011;3532;51.118;7.210;2022-11-18T03:43:49;4.50;;;3.13;;
6983;SDS011;3532;51.118;7.210;2022-11-18T03:46:22;4.40;;;3.17;;
6983;SDS011;3532;51.118;7.210;2022-11-18T03:48:51;4.40;;;2.83;;
6983;SDS011;3532;51.118;7.210;2022-11-18T03:51:19;9.00;;;3.73;;
6983;SDS011;3532;51.118;7.210;2022-11-18T03:53:51;8.50;;;3.30;;
6983;SDS011;3532;51.118;7.210;2022-11-18T03:56:25;5.20;;;3.43;;
6983;SDS011;3532;51.118;7.210;2022-11-18T03:59:11;4.27;;;3.63;;
6983;SDS011;3532;51.118;7.210;2022-11-18T04:01:40;7.90;;;3.00;;
6983;SDS011;3532;51.118;7.210;2022-11-18T04:04:07;5.83;;;3.27;;
6983;SDS011;3532;51.118;7.210;2022-11-18T04:06:38;6.27;;;2.90;;
6983;SDS011;3532;51.118;7.210;2022-11-18T04:09:17;4.77;;;3.03;;
6983;SDS011;3532;51.118;7.210;2022-11-18T04:11:48;5.13;;;3.33;;
6983;SDS011;3532;51.118;7.210;2022-11-18T04:14:34;7.87;;;3.77;;
6983;SDS011;3532;51.118;7.210;2022-11-18T04:17:05;8.67;;;3.10;;
6983;SDS011;3532;51.118;7.210;2022-11-18T04:19:36;6.23;;;3.00;;
6983;SDS011;3532;51.118;7.210;2022-11-18T04:22:02;7.03;;;3.43;;
6983;SDS011;3532;51.118;7.210;2022-11-18T04:24:27;6.53;;;4.27;;
6983;SDS011;3532;51.118;7.210;2022-11-18T04:26:52;5.93;;;3.77;;
6983;SDS011;3532;51.118;7.210;2022-11-18T04:29:18;5.73;;;3.43;;
6983;SDS011;3532;51.118;7.210;2022-11-18T04:31:43;6.40;;;2.93;;
6983;SDS011;3532;51.118;7.210;2022-11-18T04:34:08;4.67;;;3.00;;
6983;SDS011;3532;51.118;7.210;2022-11-18T04:36:33;7.37;;;2.87;;
6983;SDS011;3532;51.118;7.210;2022-11-18T04:38:59;5.70;;;3.27;;
6983;SDS011;3532;51.118;7.210;2022-11-18T04:41:24;6.23;;;3.60;;
6983;SDS011;3532;51.118;7.210;2022-11-18T04:44:09;7.63;;;3.20;;
6983;SDS011;3532;51.118;7.210;2022-11-18T04:46:37;4.13;;;3.17;;
6983;SDS011;3532;51.118;7.210;2022-11-18T04:49:03;6.63;;;3.27;;
6983;SDS011;3532;51.118;7.210;2022-11-18T04:51:29;4.37;;;3.57;;
6983;SDS011;3532;51.118;7.210;2022-11-18T04:53:54;5.50;;;3.53;;
6983;SDS011;3532;51.118;7.210;2022-11-18T04:56:19;3.93;;;3.17;;
6983;SDS011;3532;51.118;7.210;2022-11-18T04:58:45;5.13;;;3.23;;
6983;SDS011;3532;51.118;7.210;2022-11-18T05:01:10;4.50;;;3.17;;
6983;SDS011;3532;51.118;7.210;2022-11-18T05:03:35;3.20;;;2.70;;
6983;SDS011;3532;51.118;7.210;2022-11-18T05:06:00;4.40;;;3.60;;
6983;SDS011;3532;51.118;7.210;2022-11-18T05:08:26;6.53;;;3.33;;
6983;SDS011;3532;51.118;7.210;2022-11-18T05:10:51;7.43;;;3.47;;
6983;SDS011;3532;51.118;7.210;2022-11-18T05:13:36;6.60;;;3.30;;
6983;SDS011;3532;51.118;7.210;2022-11-18T05:16:02;7.63;;;3.53;;
6983;SDS011;3532;51.118;7.210;2022-11-18T05:18:27;7.70;;;3.40;;
6983;SDS011;3532;51.118;7.210;2022-11-18T05:20:52;6.07;;;3.40;;
6983;SDS011;3532;51.118;7.210;2022-11-18T05:23:18;3.93;;;3.20;;
6983;SDS011;3532;51.118;7.210;2022-11-18T05:25:43;7.17;;;3.40;;
6983;SDS011;3532;51.118;7.210;2022-11-18T05:28:08;5.63;;;3.30;;
6983;SDS011;3532;51.118;7.210;2022-11-18T05:30:33;6.57;;;3.90;;
6983;SDS011;3532;51.118;7.210;2022-11-18T05:33:01;5.07;;;3.40;;
6983;SDS011;3532;51.118;7.210;2022-11-18T05:35:26;6.83;;;3.77;;
6983;SDS011;3532;51.118;7.210;2022-11-18T05:37:52;8.00;;;3.93;;
6983;SDS011;3532;51.118;7.210;2022-11-18T05:40:17;8.03;;;3.80;;
6983;SDS011;3532;51.118;7.210;2022-11-18T05:42:42;6.97;;;4.07;;
6983;SDS011;3532;51.118;7.210;2022-11-18T05:45:26;5.73;;;3.70;;
6983;SDS011;3532;51.118;7.210;2022-11-18T05:47:52;6.10;;;3.60;;
6983;SDS011;3532;51.118;7.210;2022-11-18T05:50:28;5.63;;;3.77;;
6983;SDS011;3532;51.118;7.210;2022-11-18T05:52:54;6.10;;;3.50;;
6983;SDS011;3532;51.118;7.210;2022-11-18T05:55:20;4.80;;;3.33;;
6983;SDS011;3532;51.118;7.210;2022-11-18T05:57:46;6.13;;;3.50;;
6983;SDS011;3532;51.118;7.210;2022-11-18T06:00:12;5.90;;;3.43;;
6983;SDS011;3532;51.118;7.210;2022-11-18T06:02:37;5.63;;;3.53;;
6983;SDS011;3532;51.118;7.210;2022-11-18T06:05:04;4.23;;;3.07;;
6983;SDS011;3532;51.118;7.210;2022-11-18T06:07:37;6.17;;;4.03;;
6983;SDS011;3532;51.118;7.210;2022-11-18T06:10:04;7.37;;;3.70;;
6983;SDS011;3532;51.118;7.210;2022-11-18T06:12:31;5.33;;;3.13;;
6983;SDS011;3532;51.118;7.210;2022-11-18T06:17:38;4.67;;;3.33;;
6983;SDS011;3532;51.118;7.210;2022-11-18T06:20:07;7.63;;;3.47;;
6983;SDS011;3532;51.118;7.210;2022-11-18T06:22:33;4.17;;;3.13;;
6983;SDS011;3532;51.118;7.210;2022-11-18T06:24:59;6.67;;;3.63;;
6983;SDS011;3532;51.118;7.210;2022-11-18T06:27:25;7.47;;;3.10;;
6983;SDS011;3532;51.118;7.210;2022-11-18T06:29:50;5.30;;;3.43;;
6983;SDS011;3532;51.118;7.210;2022-11-18T06:32:15;4.37;;;3.27;;
6983;SDS011;3532;51.118;7.210;2022-11-18T06:34:41;4.07;;;3.00;;
6983;SDS011;3532;51.118;7.210;2022-11-18T06:37:15;6.17;;;4.00;;
6983;SDS011;3532;51.118;7.210;2022-11-18T06:39:42;8.57;;;4.23;;
6983;SDS011;3532;51.118;7.210;2022-11-18T06:42:08;4.40;;;3.40;;
6983;SDS011;3532;51.118;7.210;2022-11-18T06:44:33;8.90;;;3.30;;
6983;SDS011;3532;51.118;7.210;2022-11-18T06:46:59;4.87;;;3.60;;
6983;SDS011;3532;51.118;7.210;2022-11-18T06:49:25;7.07;;;3.70;;
6983;SDS011;3532;51.118;7.210;2022-11-18T06:51:52;6.13;;;3.77;;
6983;SDS011;3532;51.118;7.210;2022-11-18T06:54:17;5.57;;;2.70;;
6983;SDS011;3532;51.118;7.210;2022-11-18T06:56:43;5.60;;;3.50;;
6983;SDS011;3532;51.118;7.210;2022-11-18T06:59:08;5.90;;;3.80;;
6983;SDS011;3532;51.118;7.210;2022-11-18T07:01:34;7.23;;;3.23;;
6983;SDS011;3532;51.118;7.210;2022-11-18T07:04:01;5.53;;;3.70;;
6983;SDS011;3532;51.118;7.210;2022-11-18T07:06:27;5.97;;;3.80;;
6983;SDS011;3532;51.118;7.210;2022-11-18T07:08:54;7.67;;;3.50;;
6983;SDS011;3532;51.118;7.210;2022-11-18T07:11:20;7.60;;;4.10;;
6983;SDS011;3532;51.118;7.210;2022-11-18T07:13:48;4.53;;;3.10;;
6983;SDS011;3532;51.118;7.210;2022-11-18T07:16:20;7.53;;;3.10;;
6983;SDS011;3532;51.118;7.210;2022-11-18T07:18:47;6.30;;;3.77;;
6983;SDS011;3532;51.118;7.210;2022-11-18T07:21:14;7.33;;;2.77;;
6983;SDS011;3532;51.118;7.210;2022-11-18T07:23:41;7.20;;;2.97;;
6983;SDS011;3532;51.118;7.210;2022-11-18T07:26:07;3.03;;;2.73;;
6983;SDS011;3532;51.118;7.210;2022-11-18T07:28:32;5.20;;;3.63;;
6983;SDS011;3532;51.118;7.210;2022-11-18T07:33:27;8.40;;;3.67;;
6983;SDS011;3532;51.118;7.210;2022-11-18T07:35:52;7.17;;;3.10;;
6983;SDS011;3532;51.118;7.210;2022-11-18T07:38:18;4.40;;;3.77;;
6983;SDS011;3532;51.118;7.210;2022-11-18T07:40:43;6.67;;;3.57;;
6983;SDS011;3532;51.118;7.210;2022-11-18T07:43:08;6.53;;;3.73;;
6983;SDS011;3532;51.118;7.210;2022-11-18T07:45:33;4.23;;;3.63;;
6983;SDS011;3532;51.118;7.210;2022-11-18T07:47:59;4.20;;;3.80;;
6983;SDS011;3532;51.118;7.210;2022-11-18T07:50:24;7.17;;;4.10;;
6983;SDS011;3532;51.118;7.210;2022-11-18T07:52:50;6.73;;;4.17;;
6983;SDS011;3532;51.118;7.210;2022-11-18T07:55:19;6.27;;;4.10;;
6983;SDS011;3532;51.118;7.210;2022-11-18T07:57:44;7.73;;;4.50;;
6983;SDS011;3532;51.118;7.210;2022-11-18T08:00:10;6.03;;;4.50;;
6983;SDS011;3532;51.118;7.210;2022-11-18T08:02:35;6.77;;;5.53;;
6983;SDS011;3532;51.118;7.210;2022-11-18T08:05:01;8.73;;;6.10;;
6983;SDS011;3532;51.118;7.210;2022-11-18T08:07:26;6.60;;;4.50;;
6983;SDS011;3532;51.118;7.210;2022-11-18T08:09:51;6.23;;;4.27;;
6983;SDS011;3532;51.118;7.210;2022-11-18T08:12:16;7.77;;;4.13;;
6983;SDS011;3532;51.118;7.210;2022-11-18T08:14:42;6.40;;;3.80;;
6983;SDS011;3532;51.118;7.210;2022-11-18T08:17:07;4.47;;;3.33;;
6983;SDS011;3532;51.118;7.210;2022-11-18T08:19:33;5.33;;;4.10;;
6983;SDS011;3532;51.118;7.210;2022-11-18T08:21:58;9.77;;;4.83;;
6983;SDS011;3532;51.118;7.210;2022-11-18T08:24:23;8.80;;;4.60;;
6983;SDS011;3532;51.118;7.210;2022-11-18T08:26:49;5.73;;;3.87;;
6983;SDS011;3532;51.118;7.210;2022-11-18T08:29:14;7.90;;;4.67;;
6983;SDS011;3532;51.118;7.210;2022-11-18T08:31:39;7.07;;;3.97;;
6983;SDS011;3532;51.118;7.210;2022-11-18T08:34:05;4.43;;;3.67;;
6983;SDS011;3532;51.118;7.210;2022-11-18T08:36:32;6.17;;;4.30;;
6983;SDS011;3532;51.118;7.210;2022-11-18T08:39:00;5.27;;;3.67;;
6983;SDS011;3532;51.118;7.210;2022-11-18T08:41:27;5.73;;;3.70;;
6983;SDS011;3532;51.118;7.210;2022-11-18T08:43:54;5.70;;;3.43;;
6983;SDS011;3532;51.118;7.210;2022-11-18T08:46:20;4.17;;;3.60;;
6983;SDS011;3532;51.118;7.210;2022-11-18T08:48:45;6.33;;;3.80;;
6983;SDS011;3532;51.118;7.210;2022-11-18T08:51:10;5.10;;;3.60;;
6983;SDS011;3532;51.118;7.210;2022-11-18T08:53:37;5.60;;;3.20;;
6983;SDS011;3532;51.118;7.210;2022-11-18T08:56:02;3.83;;;3.07;;
6983;SDS011;3532;51.118;7.210;2022-11-18T08:58:27;4.20;;;3.17;;
6983;SDS011;3532;51.118;7.210;2022-11-18T09:00:53;4.00;;;3.30;;
6983;SDS011;3532;51.118;7.210;2022-11-18T09:03:19;5.87;;;4.13;;
6983;SDS011;3532;51.118;7.210;2022-11-18T09:05:44;4.00;;;3.67;;
6983;SDS011;3532;51.118;7.210;2022-11-18T09:08:09;4.07;;;3.70;;
6983;SDS011;3532;51.118;7.210;2022-11-18T09:10:35;4.57;;;3.67;;
6983;SDS011;3532;51.118;7.210;2022-11-18T09:13:01;5.53;;;3.73;;
6983;SDS011;3532;51.118;7.210;2022-11-18T09:15:26;4.50;;;3.83;;
6983;SDS011;3532;51.118;7.210;2022-11-18T09:17:53;7.60;;;4.40;;
6983;SDS011;3532;51.118;7.210;2022-11-18T09:20:18;6.20;;;4.43;;
6983;SDS011;3532;51.118;7.210;2022-11-18T09:22:44;5.17;;;3.93;;
6983;SDS011;3532;51.118;7.210;2022-11-18T09:25:09;7.83;;;4.47;;
6983;SDS011;3532;51.118;7.210;2022-11-18T09:27:34;6.53;;;4.97;;
6983;SDS011;3532;51.118;7.210;2022-11-18T09:30:00;5.57;;;4.83;;
6983;SDS011;3532;51.118;7.210;2022-11-18T09:32:25;8.33;;;4.97;;
6983;SDS011;3532;51.118;7.210;2022-11-18T09:34:50;8.43;;;5.07;;
6983;SDS011;3532;51.118;7.210;2022-11-18T09:37:16;6.40;;;4.23;;
6983;SDS011;3532;51.118;7.210;2022-11-18T09:39:41;9.83;;;5.20;;
6983;SDS011;3532;51.118;7.210;2022-11-18T09:44:42;9.00;;;5.23;;
6983;SDS011;3532;51.118;7.210;2022-11-18T09:47:28;8.43;;;4.50;;
6983;SDS011;3532;51.118;7.210;2022-11-18T09:50:02;11.43;;;5.83;;
6983;SDS011;3532;51.118;7.210;2022-11-18T09:52:30;7.40;;;4.67;;
6983;SDS011;3532;51.118;7.210;2022-11-18T09:55:02;5.00;;;4.40;;
6983;SDS011;3532;51.118;7.210;2022-11-18T09:57:38;9.97;;;5.00;;
6983;SDS011;3532;51.118;7.210;2022-11-18T10:00:19;9.03;;;4.90;;
6983;SDS011;3532;51.118;7.210;2022-11-18T10:03:04;11.77;;;5.23;;
6983;SDS011;3532;51.118;7.210;2022-11-18T10:05:44;12.87;;;5.17;;
6983;SDS011;3532;51.118;7.210;2022-11-18T10:13:15;7.07;;;4.40;;
6983;SDS011;3532;51.118;7.210;2022-11-18T10:15:57;5.60;;;4.60;;
6983;SDS011;3532;51.118;7.210;2022-11-18T10:18:30;11.03;;;4.83;;
6983;SDS011;3532;51.118;7.210;2022-11-18T10:21:10;8.17;;;5.10;;
6983;SDS011;3532;51.118;7.210;2022-11-18T10:23:52;6.90;;;5.53;;
6983;SDS011;3532;51.118;7.210;2022-11-18T10:29:19;12.57;;;6.90;;
6983;SDS011;3532;51.118;7.210;2022-11-18T10:34:30;6.80;;;5.40;;
6983;SDS011;3532;51.118;7.210;2022-11-18T10:36:57;8.57;;;6.67;;
6983;SDS011;3532;51.118;7.210;2022-11-18T10:39:50;8.37;;;7.23;;
6983;SDS011;3532;51.118;7.210;2022-11-18T10:42:21;8.43;;;7.47;;
6983;SDS011;3532;51.118;7.210;2022-11-18T10:44:53;12.13;;;8.00;;
6983;SDS011;3532;51.118;7.210;2022-11-18T10:47:28;14.93;;;7.90;;
6983;SDS011;3532;51.118;7.210;2022-11-18T10:49:56;10.60;;;7.10;;
6983;SDS011;3532;51.118;7.210;2022-11-18T10:52:22;11.43;;;7.83;;
6983;SDS011;3532;51.118;7.210;2022-11-18T10:57:39;10.67;;;8.80;;
6983;SDS011;3532;51.118;7.210;2022-11-18T11:00:52;16.03;;;9.70;;
6983;SDS011;3532;51.118;7.210;2022-11-18T11:02:56;8.80;;;7.93;;
6983;SDS011;3532;51.118;7.210;2022-11-18T11:05:22;14.10;;;8.83;;
6983;SDS011;3532;51.118;7.210;2022-11-18T11:08:04;10.40;;;8.03;;
6983;SDS011;3532;51.118;7.210;2022-11-18T11:10:30;11.87;;;9.20;;
6983;SDS011;3532;51.118;7.210;2022-11-18T11:12:57;9.87;;;7.60;;
6983;SDS011;3532;51.118;7.210;2022-11-18T11:15:33;10.83;;;8.17;;
6983;SDS011;3532;51.118;7.210;2022-11-18T11:18:05;9.77;;;7.73;;
6983;SDS011;3532;51.118;7.210;2022-11-18T11:20:53;8.23;;;6.67;;
6983;SDS011;3532;51.118;7.210;2022-11-18T11:23:18;9.53;;;7.23;;
6983;SDS011;3532;51.118;7.210;2022-11-18T11:25:55;10.73;;;7.13;;
6983;SDS011;3532;51.118;7.210;2022-11-18T11:34:16;9.70;;;6.97;;
6983;SDS011;3532;51.118;7.210;2022-11-18T11:47:31;11.00;;;5.27;;
6983;SDS011;3532;51.118;7.210;2022-11-18T12:03:50;7.63;;;3.40;;
6983;SDS011;3532;51.118;7.210;2022-11-18T12:06:17;9.47;;;3.90;;
6983;SDS011;3532;51.118;7.210;2022-11-18T12:08:47;7.80;;;3.60;;
6983;SDS011;3532;51.118;7.210;2022-11-18T12:11:25;5.70;;;2.90;;
6983;SDS011;3532;51.118;7.210;2022-11-18T12:19:17;8.43;;;3.40;;
6983;SDS011;3532;51.118;7.210;2022-11-18T12:24:51;4.43;;;3.17;;
6983;SDS011;3532;51.118;7.210;2022-11-18T12:35:03;8.43;;;3.87;;
6983;SDS011;3532;51.118;7.210;2022-11-18T12:37:56;6.47;;;4.27;;
6983;SDS011;3532;51.118;7.210;2022-11-18T12:48:55;9.33;;;4.13;;
6983;SDS011;3532;51.118;7.210;2022-11-18T12:53:46;6.10;;;3.60;;
6983;SDS011;3532;51.118;7.210;2022-11-18T12:58:43;6.37;;;3.53;;
6983;SDS011;3532;51.118;7.210;2022-11-18T13:01:19;6.70;;;3.50;;
6983;SDS011;3532;51.118;7.210;2022-11-18T13:03:46;8.07;;;3.57;;
6983;SDS011;3532;51.118;7.210;2022-11-18T13:08:52;6.97;;;3.43;;
6983;SDS011;3532;51.118;7.210;2022-11-18T13:11:20;5.67;;;3.73;;
6983;SDS011;3532;51.118;7.210;2022-11-18T13:14:04;7.70;;;3.43;;
6983;SDS011;3532;51.118;7.210;2022-11-18T13:16:49;5.87;;;3.23;;
6983;SDS011;3532;51.118;7.210;2022-11-18T13:19:32;5.40;;;3.57;;
6983;SDS011;3532;51.118;7.210;2022-11-18T13:21:58;5.83;;;3.23;;
6983;SDS011;3532;51.118;7.210;2022-11-18T13:24:44;6.10;;;3.87;;
6983;SDS011;3532;51.118;7.210;2022-11-18T13:27:17;7.27;;;3.60;;
6983;SDS011;3532;51.118;7.210;2022-11-18T13:30:10;4.83;;;3.40;;
6983;SDS011;3532;51.118;7.210;2022-11-18T13:32:36;9.63;;;3.80;;
6983;SDS011;3532;51.118;7.210;2022-11-18T13:37:50;5.83;;;3.73;;
6983;SDS011;3532;51.118;7.210;2022-11-18T13:40:37;8.00;;;3.60;;
6983;SDS011;3532;51.118;7.210;2022-11-18T13:43:27;8.40;;;3.87;;
6983;SDS011;3532;51.118;7.210;2022-11-18T13:45:52;11.27;;;3.87;;
6983;SDS011;3532;51.118;7.210;2022-11-18T13:48:18;8.40;;;4.30;;
6983;SDS011;3532;51.118;7.210;2022-11-18T13:50:46;10.73;;;4.20;;
6983;SDS011;3532;51.118;7.210;2022-11-18T13:55:58;6.33;;;3.80;;
6983;SDS011;3532;51.118;7.210;2022-11-18T14:03:56;9.50;;;3.70;;
6983;SDS011;3532;51.118;7.210;2022-11-18T14:06:30;8.57;;;4.17;;
6983;SDS011;3532;51.118;7.210;2022-11-18T14:09:04;7.57;;;4.07;;
6983;SDS011;3532;51.118;7.210;2022-11-18T14:11:41;5.37;;;3.63;;
6983;SDS011;3532;51.118;7.210;2022-11-18T14:14:09;4.77;;;3.77;;
6983;SDS011;3532;51.118;7.210;2022-11-18T14:16:44;5.63;;;3.73;;
6983;SDS011;3532;51.118;7.210;2022-11-18T14:19:25;4.70;;;3.30;;
6983;SDS011;3532;51.118;7.210;2022-11-18T14:21:53;6.30;;;3.53;;
6983;SDS011;3532;51.118;7.210;2022-11-18T14:24:24;5.37;;;3.33;;
6983;SDS011;3532;51.118;7.210;2022-11-18T14:26:51;5.50;;;3.43;;
6983;SDS011;3532;51.118;7.210;2022-11-18T14:29:17;5.27;;;3.60;;
6983;SDS011;3532;51.118;7.210;2022-11-18T14:35:00;8.70;;;6.00;;
6983;SDS011;3532;51.118;7.210;2022-11-18T14:37:25;7.10;;;4.07;;
6983;SDS011;3532;51.118;7.210;2022-11-18T14:39:54;7.20;;;4.07;;
6983;SDS011;3532;51.118;7.210;2022-11-18T14:42:20;6.63;;;3.83;;
6983;SDS011;3532;51.118;7.210;2022-11-18T14:44:47;9.17;;;4.83;;
6983;SDS011;3532;51.118;7.210;2022-11-18T14:47:15;6.33;;;4.20;;
6983;SDS011;3532;51.118;7.210;2022-11-18T14:49:45;5.27;;;4.00;;
6983;SDS011;3532;51.118;7.210;2022-11-18T14:52:11;5.80;;;3.87;;
6983;SDS011;3532;51.118;7.210;2022-11-18T14:54:36;7.70;;;3.77;;
6983;SDS011;3532;51.118;7.210;2022-11-18T14:57:02;5.20;;;3.30;;
6983;SDS011;3532;51.118;7.210;2022-11-18T14:59:28;8.63;;;4.20;;
6983;SDS011;3532;51.118;7.210;2022-11-18T15:01:54;6.43;;;3.30;;
6983;SDS011;3532;51.118;7.210;2022-11-18T15:04:20;9.17;;;4.33;;
6983;SDS011;3532;51.118;7.210;2022-11-18T15:06:45;7.53;;;4.33;;
6983;SDS011;3532;51.118;7.210;2022-11-18T15:09:11;7.47;;;4.80;;
6983;SDS011;3532;51.118;7.210;2022-11-18T15:11:36;6.23;;;3.60;;
6983;SDS011;3532;51.118;7.210;2022-11-18T15:14:02;9.37;;;6.03;;
6983;SDS011;3532;51.118;7.210;2022-11-18T15:16:28;9.80;;;5.13;;
6983;SDS011;3532;51.118;7.210;2022-11-18T15:18:59;7.00;;;4.60;;
6983;SDS011;3532;51.118;7.210;2022-11-18T15:21:26;7.83;;;4.40;;
6983;SDS011;3532;51.118;7.210;2022-11-18T15:23:51;7.97;;;4.30;;
6983;SDS011;3532;51.118;7.210;2022-11-18T15:26:21;6.00;;;3.90;;
6983;SDS011;3532;51.118;7.210;2022-11-18T15:28:47;9.70;;;4.30;;
6983;SDS011;3532;51.118;7.210;2022-11-18T15:31:14;8.40;;;4.67;;
6983;SDS011;3532;51.118;7.210;2022-11-18T15:33:39;6.67;;;4.57;;
6983;SDS011;3532;51.118;7.210;2022-11-18T15:36:09;5.47;;;4.47;;
6983;SDS011;3532;51.118;7.210;2022-11-18T15:38:39;7.70;;;5.03;;
6983;SDS011;3532;51.118;7.210;2022-11-18T15:41:05;7.13;;;4.80;;
6983;SDS011;3532;51.118;7.210;2022-11-18T15:43:31;8.77;;;4.83;;
6983;SDS011;3532;51.118;7.210;2022-11-18T15:45:57;7.40;;;5.03;;
6983;SDS011;3532;51.118;7.210;2022-11-18T15:48:22;4.87;;;4.00;;
6983;SDS011;3532;51.118;7.210;2022-11-18T15:50:47;6.07;;;4.27;;
6983;SDS011;3532;51.118;7.210;2022-11-18T15:53:13;11.87;;;5.00;;
6983;SDS011;3532;51.118;7.210;2022-11-18T15:55:38;7.53;;;4.80;;
6983;SDS011;3532;51.118;7.210;2022-11-18T15:58:03;4.53;;;3.70;;
6983;SDS011;3532;51.118;7.210;2022-11-18T16:00:29;5.87;;;4.30;;
6983;SDS011;3532;51.118;7.210;2022-11-18T16:02:54;5.47;;;4.10;;
6983;SDS011;3532;51.118;7.210;2022-11-18T16:05:19;12.87;;;5.37;;
6983;SDS011;3532;51.118;7.210;2022-11-18T16:07:45;8.10;;;5.83;;
6983;SDS011;3532;51.118;7.210;2022-11-18T16:10:11;10.70;;;5.40;;
6983;SDS011;3532;51.118;7.210;2022-11-18T16:12:55;9.40;;;5.77;;
6983;SDS011;3532;51.118;7.210;2022-11-18T16:15:21;7.40;;;5.27;;
6983;SDS011;3532;51.118;7.210;2022-11-18T16:18:05;7.07;;;5.93;;
6983;SDS011;3532;51.118;7.210;2022-11-18T16:20:30;7.93;;;5.37;;
6983;SDS011;3532;51.118;7.210;2022-11-18T16:22:56;8.43;;;5.30;;
6983;SDS011;3532;51.118;7.210;2022-11-18T16:25:21;11.03;;;5.80;;
6983;SDS011;3532;51.118;7.210;2022-11-18T16:27:47;6.83;;;5.57;;
6983;SDS011;3532;51.118;7.210;2022-11-18T16:30:13;9.00;;;7.47;;
6983;SDS011;3532;51.118;7.210;2022-11-18T16:32:57;15.23;;;8.57;;
6983;SDS011;3532;51.118;7.210;2022-11-18T16:35:23;9.57;;;7.23;;
6983;SDS011;3532;51.118;7.210;2022-11-18T16:37:48;8.20;;;6.30;;
6983;SDS011;3532;51.118;7.210;2022-11-18T16:40:14;7.83;;;7.03;;
6983;SDS011;3532;51.118;7.210;2022-11-18T16:42:39;6.97;;;6.30;;
6983;SDS011;3532;51.118;7.210;2022-11-18T16:45:05;11.70;;;8.40;;
6983;SDS011;3532;51.118;7.210;2022-11-18T16:47:30;12.43;;;9.60;;
6983;SDS011;3532;51.118;7.210;2022-11-18T16:49:55;12.43;;;11.13;;
6983;SDS011;3532;51.118;7.210;2022-11-18T16:52:21;15.37;;;11.53;;
6983;SDS011;3532;51.118;7.210;2022-11-18T16:54:46;15.57;;;11.87;;
6983;SDS011;3532;51.118;7.210;2022-11-18T16:57:11;11.87;;;10.67;;
6983;SDS011;3532;51.118;7.210;2022-11-18T16:59:37;10.53;;;9.40;;
6983;SDS011;3532;51.118;7.210;2022-11-18T17:02:02;12.97;;;8.77;;
6983;SDS011;3532;51.118;7.210;2022-11-18T17:04:28;11.70;;;9.40;;
6983;SDS011;3532;51.118;7.210;2022-11-18T17:06:54;10.77;;;9.63;;
6983;SDS011;3532;51.118;7.210;2022-11-18T17:09:20;12.37;;;9.43;;
6983;SDS011;3532;51.118;7.210;2022-11-18T17:11:47;14.77;;;10.80;;
6983;SDS011;3532;51.118;7.210;2022-11-18T17:14:13;11.33;;;10.00;;
6983;SDS011;3532;51.118;7.210;2022-11-18T17:16:38;13.23;;;9.80;;